createdAt,value
2018-11-25T00:01:46.921Z,1004.63
2018-11-25T00:02:47.191Z,1004.62
2018-11-25T00:04:41.210Z,1004.61
2018-11-25T00:05:41.169Z,1004.60
2018-11-25T00:07:35.719Z,1004.59
2018-11-25T00:08:36.133Z,1004.59
2018-11-25T00:10:30.494Z,1004.58
2018-11-25T00:11:30.613Z,1004.61
2018-11-25T00:13:25.244Z,1004.64
2018-11-25T00:14:25.812Z,1004.64
2018-11-25T00:16:19.821Z,1004.65
2018-11-25T00:17:19.825Z,1004.65
2018-11-25T00:19:14.118Z,1004.66
2018-11-25T00:20:14.531Z,1004.63
2018-11-25T00:22:09.207Z,1004.69
2018-11-25T00:23:09.699Z,1004.62
2018-11-25T00:25:03.899Z,1004.65
2018-11-25T00:26:04.334Z,1004.60
2018-11-25T00:27:04.385Z,1004.60
2018-11-25T00:28:04.432Z,1004.64
2018-11-25T00:29:04.459Z,1004.57
2018-11-25T00:30:04.359Z,1004.62
2018-11-25T00:31:09.459Z,1004.58
2018-11-25T00:32:10.769Z,1004.59
2018-11-25T00:33:04.361Z,1004.58
2018-11-25T00:34:06.214Z,1004.59
2018-11-25T00:35:04.422Z,1004.58
2018-11-25T00:36:04.320Z,1004.60
2018-11-25T00:37:04.209Z,1004.60
2018-11-25T00:38:04.287Z,1004.59
2018-11-25T00:39:04.484Z,1004.59
2018-11-25T00:40:04.184Z,1004.60
2018-11-25T00:41:04.256Z,1004.61
2018-11-25T00:42:04.252Z,1004.56
2018-11-25T00:43:04.258Z,1004.59
2018-11-25T00:44:04.200Z,1004.57
2018-11-25T00:45:18.203Z,1004.57
2018-11-25T00:46:04.189Z,1004.57
2018-11-25T00:47:04.211Z,1004.54
2018-11-25T00:48:04.258Z,1004.54
2018-11-25T00:49:04.210Z,1004.53
2018-11-25T00:50:04.287Z,1004.55
2018-11-25T00:51:04.180Z,1004.57
2018-11-25T00:52:04.185Z,1004.58
2018-11-25T00:53:04.153Z,1004.58
2018-11-25T00:54:04.184Z,1004.59
2018-11-25T00:55:04.298Z,1004.56
2018-11-25T00:56:03.849Z,1004.59
2018-11-25T00:57:03.861Z,1004.56
2018-11-25T00:58:05.737Z,1004.57
2018-11-25T00:59:05.783Z,1004.54
2018-11-25T01:00:05.771Z,1004.56
2018-11-25T01:01:03.911Z,1004.55
2018-11-25T01:02:05.634Z,1004.56
2018-11-25T01:03:05.699Z,1004.59
2018-11-25T01:04:03.922Z,1004.56
2018-11-25T01:05:05.694Z,1004.54
2018-11-25T01:06:03.907Z,1004.55
2018-11-25T01:07:05.789Z,1004.55
2018-11-25T01:08:05.763Z,1004.54
2018-11-25T01:09:04.335Z,1004.55
2018-11-25T01:10:03.831Z,1004.56
2018-11-25T01:11:03.844Z,1004.57
2018-11-25T01:12:03.869Z,1004.55
2018-11-25T01:13:03.796Z,1004.51
2018-11-25T01:14:03.792Z,1004.54
2018-11-25T01:15:03.755Z,1004.53
2018-11-25T01:16:03.919Z,1004.56
2018-11-25T01:17:03.826Z,1004.55
2018-11-25T01:18:03.864Z,1004.54
2018-11-25T01:19:03.834Z,1004.58
2018-11-25T01:20:03.488Z,1004.61
2018-11-25T01:21:03.894Z,1004.60
2018-11-25T01:22:03.809Z,1004.61
2018-11-25T01:23:03.540Z,1004.58
2018-11-25T01:24:03.788Z,1004.59
2018-11-25T01:25:03.886Z,1004.60
2018-11-25T01:26:03.762Z,1004.58
2018-11-25T01:27:03.735Z,1004.59
2018-11-25T01:28:03.813Z,1004.62
2018-11-25T01:29:03.726Z,1004.60
2018-11-25T01:30:03.802Z,1004.62
2018-11-25T01:31:03.849Z,1004.66
2018-11-25T01:32:03.788Z,1004.62
2018-11-25T01:33:03.701Z,1004.60
2018-11-25T01:34:03.799Z,1004.64
2018-11-25T01:35:03.824Z,1004.62
2018-11-25T01:36:03.675Z,1004.61
2018-11-25T01:37:03.837Z,1004.58
2018-11-25T01:38:03.836Z,1004.60
2018-11-25T01:39:03.798Z,1004.59
2018-11-25T01:40:03.839Z,1004.58
2018-11-25T01:41:03.853Z,1004.62
2018-11-25T01:42:03.737Z,1004.61
2018-11-25T01:43:03.880Z,1004.60
2018-11-25T01:44:03.791Z,1004.56
2018-11-25T01:45:03.729Z,1004.57
2018-11-25T01:46:03.874Z,1004.57
2018-11-25T01:47:03.795Z,1004.58
2018-11-25T01:48:03.705Z,1004.55
2018-11-25T01:49:03.749Z,1004.59
2018-11-25T01:50:03.833Z,1004.58
2018-11-25T01:51:03.804Z,1004.59
2018-11-25T01:52:03.668Z,1004.57
2018-11-25T01:53:03.683Z,1004.59
2018-11-25T01:54:03.745Z,1004.56
2018-11-25T01:55:03.787Z,1004.53
2018-11-25T01:56:03.674Z,1004.57
2018-11-25T01:57:03.750Z,1004.57
2018-11-25T01:58:03.823Z,1004.50
2018-11-25T01:59:03.821Z,1004.52
2018-11-25T02:00:03.665Z,1004.53
2018-11-25T02:01:03.619Z,1004.51
2018-11-25T02:02:03.971Z,1004.44
2018-11-25T02:03:03.681Z,1004.47
2018-11-25T02:04:03.762Z,1004.47
2018-11-25T02:05:05.225Z,1004.49
2018-11-25T02:06:03.310Z,1004.47
2018-11-25T02:07:03.610Z,1004.49
2018-11-25T02:08:03.351Z,1004.48
2018-11-25T02:09:03.379Z,1004.47
2018-11-25T02:10:03.343Z,1004.44
2018-11-25T02:11:03.362Z,1004.45
2018-11-25T02:12:03.358Z,1004.40
2018-11-25T02:13:03.355Z,1004.41
2018-11-25T02:14:03.391Z,1004.46
2018-11-25T02:15:03.317Z,1004.38
2018-11-25T02:16:03.312Z,1004.45
2018-11-25T02:17:03.369Z,1004.42
2018-11-25T02:18:03.305Z,1004.42
2018-11-25T02:19:03.392Z,1004.39
2018-11-25T02:20:03.394Z,1004.40
2018-11-25T02:21:03.324Z,1004.42
2018-11-25T02:22:03.364Z,1004.39
2018-11-25T02:23:03.447Z,1004.39
2018-11-25T02:24:03.345Z,1004.41
2018-11-25T02:25:03.312Z,1004.42
2018-11-25T02:26:03.342Z,1004.37
2018-11-25T02:27:03.344Z,1004.38
2018-11-25T02:28:03.429Z,1004.34
2018-11-25T02:29:03.363Z,1004.34
2018-11-25T02:30:03.398Z,1004.34
2018-11-25T02:31:03.379Z,1004.34
2018-11-25T02:32:03.291Z,1004.37
2018-11-25T02:33:03.267Z,1004.32
2018-11-25T02:34:03.272Z,1004.32
2018-11-25T02:35:03.306Z,1004.28
2018-11-25T02:36:03.261Z,1004.34
2018-11-25T02:37:03.123Z,1004.27
2018-11-25T02:38:03.299Z,1004.29
2018-11-25T02:39:03.246Z,1004.34
2018-11-25T02:40:03.187Z,1004.31
2018-11-25T02:41:03.073Z,1004.32
2018-11-25T02:42:03.120Z,1004.30
2018-11-25T02:43:03.139Z,1004.32
2018-11-25T02:44:03.110Z,1004.27
2018-11-25T02:45:03.104Z,1004.27
2018-11-25T02:46:03.180Z,1004.27
2018-11-25T02:47:02.930Z,1004.24
2018-11-25T02:48:03.281Z,1004.27
2018-11-25T02:49:03.058Z,1004.25
2018-11-25T02:50:03.033Z,1004.26
2018-11-25T02:51:02.863Z,1004.26
2018-11-25T02:52:03.340Z,1004.28
2018-11-25T02:53:03.125Z,1004.29
2018-11-25T02:54:03.349Z,1004.30
2018-11-25T02:55:03.253Z,1004.25
2018-11-25T02:56:03.257Z,1004.28
2018-11-25T02:57:03.207Z,1004.25
2018-11-25T02:58:03.195Z,1004.20
2018-11-25T02:59:03.218Z,1004.27
2018-11-25T03:00:03.238Z,1004.19
2018-11-25T03:01:03.278Z,1004.25
2018-11-25T03:02:03.267Z,1004.28
2018-11-25T03:03:03.378Z,1004.26
2018-11-25T03:04:03.350Z,1004.26
2018-11-25T03:05:03.294Z,1004.27
2018-11-25T03:06:03.351Z,1004.28
2018-11-25T03:07:03.320Z,1004.29
2018-11-25T03:08:03.360Z,1004.33
2018-11-25T03:09:03.173Z,1004.34
2018-11-25T03:10:03.112Z,1004.34
2018-11-25T03:11:09.159Z,1004.37
2018-11-25T03:12:03.091Z,1004.29
2018-11-25T03:13:03.069Z,1004.35
2018-11-25T03:14:02.739Z,1004.36
2018-11-25T03:15:04.655Z,1004.30
2018-11-25T03:16:02.703Z,1004.32
2018-11-25T03:17:02.702Z,1004.29
2018-11-25T03:18:02.861Z,1004.33
2018-11-25T03:19:04.578Z,1004.31
2018-11-25T03:20:04.567Z,1004.35
2018-11-25T03:21:02.700Z,1004.34
2018-11-25T03:22:04.515Z,1004.35
2018-11-25T03:23:04.654Z,1004.37
2018-11-25T03:24:02.596Z,1004.32
2018-11-25T03:25:02.348Z,1004.35
2018-11-25T03:26:02.629Z,1004.34
2018-11-25T03:27:02.621Z,1004.38
2018-11-25T03:28:02.672Z,1004.36
2018-11-25T03:29:02.838Z,1004.45
2018-11-25T03:30:02.702Z,1004.40
2018-11-25T03:31:02.635Z,1004.44
2018-11-25T03:32:02.661Z,1004.45
2018-11-25T03:33:02.766Z,1004.44
2018-11-25T03:34:02.727Z,1004.43
2018-11-25T03:35:02.729Z,1004.45
2018-11-25T03:36:02.845Z,1004.45
2018-11-25T03:37:02.832Z,1004.47
2018-11-25T03:38:02.958Z,1004.43
2018-11-25T03:39:02.722Z,1004.51
2018-11-25T03:40:02.640Z,1004.48
2018-11-25T03:41:04.599Z,1004.46
2018-11-25T03:42:02.649Z,1004.47
2018-11-25T03:43:02.685Z,1004.47
2018-11-25T03:44:02.638Z,1004.50
2018-11-25T03:45:02.870Z,1004.51
2018-11-25T03:46:02.871Z,1004.47
2018-11-25T03:47:02.811Z,1004.52
2018-11-25T03:48:02.794Z,1004.53
2018-11-25T03:49:02.780Z,1004.53
2018-11-25T03:50:02.734Z,1004.51
2018-11-25T03:51:02.618Z,1004.49
2018-11-25T03:52:02.619Z,1004.52
2018-11-25T03:53:02.652Z,1004.54
2018-11-25T03:54:02.655Z,1004.54
2018-11-25T03:55:02.607Z,1004.56
2018-11-25T03:56:02.706Z,1004.58
2018-11-25T03:57:02.619Z,1004.55
2018-11-25T03:58:02.619Z,1004.55
2018-11-25T03:59:02.657Z,1004.60
2018-11-25T04:00:02.695Z,1004.63
2018-11-25T04:01:02.736Z,1004.57
2018-11-25T04:02:02.964Z,1004.61
2018-11-25T04:03:03.024Z,1004.59
2018-11-25T04:04:02.787Z,1004.62
2018-11-25T04:05:02.863Z,1004.61
2018-11-25T04:06:08.697Z,1004.62
2018-11-25T04:07:02.751Z,1004.62
2018-11-25T04:08:02.769Z,1004.61
2018-11-25T04:09:02.610Z,1004.64
2018-11-25T04:10:02.540Z,1004.62
2018-11-25T04:11:01.960Z,1004.60
2018-11-25T04:12:02.283Z,1004.65
2018-11-25T04:13:02.572Z,1004.63
2018-11-25T04:14:02.591Z,1004.62
2018-11-25T04:15:02.709Z,1004.64
2018-11-25T04:16:02.746Z,1004.68
2018-11-25T04:17:02.579Z,1004.69
2018-11-25T04:18:02.700Z,1004.70
2018-11-25T04:19:02.649Z,1004.69
2018-11-25T04:20:02.604Z,1004.67
2018-11-25T04:21:02.671Z,1004.72
2018-11-25T04:22:04.055Z,1004.70
2018-11-25T04:23:04.091Z,1004.70
2018-11-25T04:24:04.098Z,1004.66
2018-11-25T04:25:04.116Z,1004.69
2018-11-25T04:26:02.453Z,1004.69
2018-11-25T04:27:02.663Z,1004.69
2018-11-25T04:28:02.820Z,1004.68
2018-11-25T04:29:04.106Z,1004.68
2018-11-25T04:30:02.100Z,1004.65
2018-11-25T04:31:02.188Z,1004.64
2018-11-25T04:32:02.119Z,1004.71
2018-11-25T04:33:01.869Z,1004.64
2018-11-25T04:34:02.157Z,1004.67
2018-11-25T04:35:02.142Z,1004.65
2018-11-25T04:36:02.177Z,1004.67
2018-11-25T04:37:02.174Z,1004.63
2018-11-25T04:38:02.269Z,1004.61
2018-11-25T04:39:02.219Z,1004.62
2018-11-25T04:40:02.077Z,1004.59
2018-11-25T04:41:02.252Z,1004.59
2018-11-25T04:42:02.107Z,1004.59
2018-11-25T04:43:02.223Z,1004.58
2018-11-25T04:44:02.217Z,1004.59
2018-11-25T04:45:02.160Z,1004.61
2018-11-25T04:46:02.075Z,1004.59
2018-11-25T04:47:02.453Z,1004.57
2018-11-25T04:48:02.651Z,1004.57
2018-11-25T04:49:02.496Z,1004.54
2018-11-25T04:50:02.425Z,1004.55
2018-11-25T04:51:02.378Z,1004.53
2018-11-25T04:52:02.430Z,1004.52
2018-11-25T04:53:02.304Z,1004.57
2018-11-25T04:54:02.356Z,1004.51
2018-11-25T04:55:02.429Z,1004.48
2018-11-25T04:56:02.384Z,1004.48
2018-11-25T04:57:02.429Z,1004.45
2018-11-25T04:58:02.419Z,1004.47
2018-11-25T04:59:02.231Z,1004.48
2018-11-25T05:00:02.359Z,1004.48
2018-11-25T05:01:02.388Z,1004.50
2018-11-25T05:02:02.278Z,1004.51
2018-11-25T05:03:02.390Z,1004.46
2018-11-25T05:04:02.402Z,1004.52
2018-11-25T05:05:02.241Z,1004.49
2018-11-25T05:06:02.232Z,1004.55
2018-11-25T05:07:02.289Z,1004.57
2018-11-25T05:08:02.280Z,1004.55
2018-11-25T05:09:02.288Z,1004.59
2018-11-25T05:10:02.320Z,1004.57
2018-11-25T05:11:02.429Z,1004.62
2018-11-25T05:12:02.376Z,1004.63
2018-11-25T05:13:02.324Z,1004.65
2018-11-25T05:14:02.345Z,1004.66
2018-11-25T05:15:02.392Z,1004.66
2018-11-25T05:16:02.546Z,1004.68
2018-11-25T05:17:02.317Z,1004.66
2018-11-25T05:18:02.292Z,1004.72
2018-11-25T05:19:02.387Z,1004.68
2018-11-25T05:20:02.281Z,1004.69
2018-11-25T05:21:02.378Z,1004.65
2018-11-25T05:22:02.387Z,1004.70
2018-11-25T05:23:02.444Z,1004.68
2018-11-25T05:24:02.062Z,1004.69
2018-11-25T05:25:02.150Z,1004.68
2018-11-25T05:26:02.111Z,1004.72
2018-11-25T05:27:02.041Z,1004.68
2018-11-25T05:28:02.152Z,1004.75
2018-11-25T05:29:02.136Z,1004.69
2018-11-25T05:30:03.593Z,1004.65
2018-11-25T05:31:03.556Z,1004.63
2018-11-25T05:32:03.659Z,1004.68
2018-11-25T05:33:03.628Z,1004.71
2018-11-25T05:34:01.563Z,1004.67
2018-11-25T05:35:03.609Z,1004.72
2018-11-25T05:36:01.709Z,1004.72
2018-11-25T05:37:01.747Z,1004.69
2018-11-25T05:38:01.699Z,1004.71
2018-11-25T05:39:01.768Z,1004.70
2018-11-25T05:40:01.893Z,1004.69
2018-11-25T05:41:01.920Z,1004.70
2018-11-25T05:42:01.887Z,1004.70
2018-11-25T05:43:01.760Z,1004.70
2018-11-25T05:44:01.731Z,1004.68
2018-11-25T05:45:01.655Z,1004.72
2018-11-25T05:46:01.887Z,1004.71
2018-11-25T05:47:01.784Z,1004.68
2018-11-25T05:48:01.780Z,1004.73
2018-11-25T05:49:01.828Z,1004.66
2018-11-25T05:50:01.797Z,1004.68
2018-11-25T05:51:01.919Z,1004.66
2018-11-25T05:52:01.974Z,1004.66
2018-11-25T05:53:01.941Z,1004.64
2018-11-25T05:54:01.871Z,1004.68
2018-11-25T05:55:01.872Z,1004.74
2018-11-25T05:56:01.825Z,1004.72
2018-11-25T05:57:01.850Z,1004.68
2018-11-25T05:58:01.722Z,1004.73
2018-11-25T05:59:08.188Z,1004.79
2018-11-25T06:00:01.820Z,1004.74
2018-11-25T06:01:01.851Z,1004.71
2018-11-25T06:02:01.942Z,1004.77
2018-11-25T06:03:01.769Z,1004.76
2018-11-25T06:04:01.805Z,1004.74
2018-11-25T06:05:01.775Z,1004.75
2018-11-25T06:06:01.748Z,1004.71
2018-11-25T06:07:01.788Z,1004.76
2018-11-25T06:08:01.779Z,1004.76
2018-11-25T06:09:01.878Z,1004.73
2018-11-25T06:10:01.952Z,1004.77
2018-11-25T06:11:01.799Z,1004.80
2018-11-25T06:12:01.638Z,1004.77
2018-11-25T06:13:01.380Z,1004.75
2018-11-25T06:14:01.818Z,1004.76
2018-11-25T06:15:01.709Z,1004.78
2018-11-25T06:16:01.822Z,1004.75
2018-11-25T06:17:01.694Z,1004.78
2018-11-25T06:18:01.691Z,1004.77
2018-11-25T06:19:01.826Z,1004.81
2018-11-25T06:20:01.751Z,1004.79
2018-11-25T06:21:05.325Z,1004.82
2018-11-25T06:22:07.688Z,1004.83
2018-11-25T06:23:01.097Z,1004.82
2018-11-25T06:24:01.720Z,1004.83
2018-11-25T06:25:01.829Z,1004.85
2018-11-25T06:26:01.784Z,1004.84
2018-11-25T06:27:01.782Z,1004.82
2018-11-25T06:28:01.715Z,1004.82
2018-11-25T06:29:01.871Z,1004.82
2018-11-25T06:30:01.273Z,1004.83
2018-11-25T06:31:01.610Z,1004.86
2018-11-25T06:32:02.217Z,1004.84
2018-11-25T06:33:01.787Z,1004.87
2018-11-25T06:34:01.754Z,1004.90
2018-11-25T06:35:01.951Z,1004.84
2018-11-25T06:36:01.901Z,1004.85
2018-11-25T06:37:03.301Z,1004.88
2018-11-25T06:38:03.266Z,1004.89
2018-11-25T06:39:03.270Z,1004.88
2018-11-25T06:40:03.366Z,1004.88
2018-11-25T06:41:01.268Z,1004.85
2018-11-25T06:42:01.191Z,1004.80
2018-11-25T06:43:01.431Z,1004.83
2018-11-25T06:44:01.509Z,1004.78
2018-11-25T06:45:01.415Z,1004.84
2018-11-25T06:46:01.334Z,1004.80
2018-11-25T06:47:01.393Z,1004.82
2018-11-25T06:48:01.426Z,1004.83
2018-11-25T06:49:01.375Z,1004.82
2018-11-25T06:50:01.413Z,1004.80
2018-11-25T06:51:01.438Z,1004.80
2018-11-25T06:52:01.427Z,1004.79
2018-11-25T06:53:01.330Z,1004.80
2018-11-25T06:54:01.423Z,1004.82
2018-11-25T06:55:01.433Z,1004.82
2018-11-25T06:56:01.361Z,1004.85
2018-11-25T06:57:01.347Z,1004.86
2018-11-25T06:58:01.388Z,1004.89
2018-11-25T06:59:01.385Z,1004.91
2018-11-25T07:00:01.500Z,1004.90
2018-11-25T07:01:01.417Z,1004.96
2018-11-25T07:02:01.401Z,1004.91
2018-11-25T07:03:01.309Z,1004.91
2018-11-25T07:04:01.229Z,1004.89
2018-11-25T07:05:01.384Z,1004.89
2018-11-25T07:06:01.320Z,1004.89
2018-11-25T07:07:01.277Z,1004.86
2018-11-25T07:08:01.383Z,1004.88
2018-11-25T07:09:01.354Z,1004.89
2018-11-25T07:10:01.319Z,1004.84
2018-11-25T07:11:01.099Z,1004.86
2018-11-25T07:12:01.032Z,1004.85
2018-11-25T07:13:01.060Z,1004.82
2018-11-25T07:14:01.059Z,1004.85
2018-11-25T07:15:01.080Z,1004.85
2018-11-25T07:16:01.381Z,1004.88
2018-11-25T07:17:01.344Z,1004.88
2018-11-25T07:18:01.191Z,1004.92
2018-11-25T07:19:01.306Z,1004.92
2018-11-25T07:20:01.241Z,1004.93
2018-11-25T07:21:01.277Z,1004.96
2018-11-25T07:22:01.397Z,1005.03
2018-11-25T07:23:01.215Z,1005.07
2018-11-25T07:24:01.285Z,1005.10
2018-11-25T07:25:01.232Z,1005.17
2018-11-25T07:26:01.647Z,1005.13
2018-11-25T07:27:01.212Z,1005.18
2018-11-25T07:28:17.653Z,1005.22
2018-11-25T07:29:07.270Z,1005.23
2018-11-25T07:30:07.460Z,1005.27
2018-11-25T07:31:15.252Z,1005.22
2018-11-25T07:32:01.212Z,1005.24
2018-11-25T07:33:01.250Z,1005.24
2018-11-25T07:34:01.249Z,1005.27
2018-11-25T07:35:00.901Z,1005.19
2018-11-25T07:36:01.411Z,1005.17
2018-11-25T07:37:01.852Z,1005.16
2018-11-25T07:38:01.107Z,1005.21
2018-11-25T07:39:01.069Z,1005.19
2018-11-25T07:40:00.761Z,1005.22
2018-11-25T07:41:01.399Z,1005.18
2018-11-25T07:42:01.262Z,1005.19
2018-11-25T07:43:01.332Z,1005.21
2018-11-25T07:44:02.933Z,1005.20
2018-11-25T07:45:00.833Z,1005.19
2018-11-25T07:46:00.853Z,1005.23
2018-11-25T07:47:01.017Z,1005.21
2018-11-25T07:48:00.847Z,1005.18
2018-11-25T07:49:00.424Z,1005.23
2018-11-25T07:50:00.792Z,1005.15
2018-11-25T07:51:00.762Z,1005.18
2018-11-25T07:52:00.772Z,1005.18
2018-11-25T07:53:00.743Z,1005.15
2018-11-25T07:54:00.699Z,1005.16
2018-11-25T07:55:00.678Z,1005.11
2018-11-25T07:56:00.677Z,1005.13
2018-11-25T07:57:00.823Z,1005.15
2018-11-25T07:58:00.674Z,1005.08
2018-11-25T07:59:00.905Z,1005.12
2018-11-25T08:00:00.953Z,1005.13
2018-11-25T08:01:00.709Z,1005.15
2018-11-25T08:02:02.858Z,1005.16
2018-11-25T08:03:00.957Z,1005.21
2018-11-25T08:04:00.902Z,1005.24
2018-11-25T08:05:01.386Z,1005.21
2018-11-25T08:06:00.738Z,1005.20
2018-11-25T08:07:00.796Z,1005.22
2018-11-25T08:08:00.830Z,1005.14
2018-11-25T08:09:00.899Z,1005.12
2018-11-25T08:10:00.911Z,1005.10
2018-11-25T08:11:00.951Z,1005.11
2018-11-25T08:12:00.398Z,1005.07
2018-11-25T08:13:00.737Z,1005.09
2018-11-25T08:14:00.836Z,1005.07
2018-11-25T08:15:00.518Z,1005.10
2018-11-25T08:16:06.902Z,1005.16
2018-11-25T08:17:00.630Z,1005.14
2018-11-25T08:18:00.420Z,1005.17
2018-11-25T08:19:00.770Z,1005.20
2018-11-25T08:20:06.524Z,1005.18
2018-11-25T08:21:00.234Z,1005.25
2018-11-25T08:22:00.608Z,1005.20
2018-11-25T08:23:00.244Z,1005.21
2018-11-25T08:24:00.570Z,1005.18
2018-11-25T08:25:00.234Z,1005.19
2018-11-25T08:26:00.852Z,1005.23
2018-11-25T08:27:00.838Z,1005.20
2018-11-25T08:28:00.571Z,1005.20
2018-11-25T08:29:00.641Z,1005.20
2018-11-25T08:30:00.411Z,1005.16
2018-11-25T08:31:00.799Z,1005.22
2018-11-25T08:32:00.611Z,1005.18
2018-11-25T08:33:00.118Z,1005.18
2018-11-25T08:34:00.976Z,1005.18
2018-11-25T08:35:00.247Z,1005.17
2018-11-25T08:36:00.621Z,1005.12
2018-11-25T08:37:00.963Z,1005.14
2018-11-25T08:38:00.909Z,1005.12
2018-11-25T08:38:59.979Z,1005.08
2018-11-25T08:40:00.784Z,1005.02
2018-11-25T08:41:00.841Z,1005.02
2018-11-25T08:42:00.983Z,1005.03
2018-11-25T08:43:00.849Z,1004.99
2018-11-25T08:44:00.207Z,1004.98
2018-11-25T08:45:00.927Z,1004.93
2018-11-25T08:46:00.764Z,1004.97
2018-11-25T08:47:00.788Z,1004.95
2018-11-25T08:48:00.782Z,1004.93
2018-11-25T08:49:00.568Z,1004.85
2018-11-25T08:50:00.525Z,1004.95
2018-11-25T08:51:00.185Z,1004.91
2018-11-25T08:52:00.201Z,1004.86
2018-11-25T08:53:00.200Z,1004.83
2018-11-25T08:54:00.117Z,1004.90
2018-11-25T08:55:00.190Z,1004.89
2018-11-25T08:56:00.190Z,1004.87
2018-11-25T08:57:00.181Z,1004.86
2018-11-25T08:57:59.877Z,1004.91
2018-11-25T08:59:06.460Z,1004.88
2018-11-25T09:00:00.125Z,1004.88
2018-11-25T09:00:59.917Z,1004.88
2018-11-25T09:02:00.695Z,1004.85
2018-11-25T09:03:00.276Z,1004.88
2018-11-25T09:04:00.238Z,1004.87
2018-11-25T09:05:00.229Z,1004.84
2018-11-25T09:06:00.215Z,1004.89
2018-11-25T09:07:00.230Z,1004.85
2018-11-25T09:07:59.958Z,1004.89
2018-11-25T09:08:59.846Z,1004.91
2018-11-25T09:10:00.153Z,1004.91
2018-11-25T09:11:00.224Z,1004.93
2018-11-25T09:12:00.141Z,1004.92
2018-11-25T09:13:00.088Z,1004.94
2018-11-25T09:14:00.060Z,1004.93
2018-11-25T09:15:00.063Z,1004.90
2018-11-25T09:16:00.068Z,1004.99
2018-11-25T09:16:59.724Z,1005.00
2018-11-25T09:18:00.200Z,1005.00
2018-11-25T09:19:00.270Z,1005.05
2018-11-25T09:20:00.153Z,1005.06
2018-11-25T09:20:59.901Z,1005.09
2018-11-25T09:22:00.284Z,1005.14
2018-11-25T09:23:00.239Z,1005.15
2018-11-25T09:24:00.555Z,1005.19
2018-11-25T09:25:00.508Z,1005.18
2018-11-25T09:25:59.944Z,1005.22
2018-11-25T09:27:00.283Z,1005.21
2018-11-25T09:28:00.291Z,1005.28
2018-11-25T09:29:00.456Z,1005.27
2018-11-25T09:30:00.480Z,1005.27
2018-11-25T09:31:00.454Z,1005.24
2018-11-25T09:32:00.881Z,1005.26
2018-11-25T09:33:00.383Z,1005.30
2018-11-25T09:34:00.116Z,1005.30
2018-11-25T09:35:00.092Z,1005.36
2018-11-25T09:36:00.216Z,1005.32
2018-11-25T09:37:00.288Z,1005.33
2018-11-25T09:38:00.242Z,1005.28
2018-11-25T09:39:00.158Z,1005.29
2018-11-25T09:40:00.207Z,1005.29
2018-11-25T09:41:00.455Z,1005.29
2018-11-25T09:42:00.131Z,1005.25
2018-11-25T09:43:00.026Z,1005.28
2018-11-25T09:43:59.755Z,1005.27
2018-11-25T09:45:00.312Z,1005.27
2018-11-25T09:46:00.370Z,1005.26
2018-11-25T09:47:00.441Z,1005.27
2018-11-25T09:48:00.163Z,1005.25
2018-11-25T09:49:01.431Z,1005.20
2018-11-25T09:50:00.481Z,1005.18
2018-11-25T09:50:59.558Z,1005.16
2018-11-25T09:52:00.432Z,1005.15
2018-11-25T09:52:59.876Z,1005.13
2018-11-25T09:54:00.249Z,1005.13
2018-11-25T09:55:00.146Z,1005.12
2018-11-25T09:56:00.281Z,1005.19
2018-11-25T09:57:00.487Z,1005.18
2018-11-25T09:58:00.877Z,1005.22
2018-11-25T09:58:59.642Z,1005.20
2018-11-25T09:59:59.910Z,1005.23
2018-11-25T10:00:59.937Z,1005.25
2018-11-25T10:02:00.320Z,1005.24
2018-11-25T10:03:00.364Z,1005.25
2018-11-25T10:03:59.664Z,1005.22
2018-11-25T10:05:01.853Z,1005.18
2018-11-25T10:06:01.977Z,1005.22
2018-11-25T10:07:00.183Z,1005.20
2018-11-25T10:07:59.810Z,1005.19
2018-11-25T10:08:59.758Z,1005.22
2018-11-25T10:09:59.812Z,1005.15
2018-11-25T10:11:00.326Z,1005.15
2018-11-25T10:11:59.820Z,1005.13
2018-11-25T10:13:01.668Z,1005.11
2018-11-25T10:14:00.374Z,1005.07
2018-11-25T10:14:59.604Z,1005.07
2018-11-25T10:16:00.336Z,1005.05
2018-11-25T10:17:00.334Z,1005.02
2018-11-25T10:18:00.224Z,1005.05
2018-11-25T10:19:05.994Z,1005.04
2018-11-25T10:19:59.267Z,1005.04
2018-11-25T10:20:59.691Z,1005.03
2018-11-25T10:21:59.661Z,1005.07
2018-11-25T10:22:59.617Z,1005.13
2018-11-25T10:23:59.633Z,1005.11
2018-11-25T10:24:59.667Z,1005.16
2018-11-25T10:25:59.752Z,1005.12
2018-11-25T10:26:59.849Z,1005.14
2018-11-25T10:28:05.847Z,1005.11
2018-11-25T10:28:59.881Z,1005.13
2018-11-25T10:29:59.937Z,1005.12
2018-11-25T10:30:59.913Z,1005.10
2018-11-25T10:32:59.962Z,1005.11
2018-11-25T10:34:00.378Z,1005.06
2018-11-25T10:34:59.716Z,1005.09
2018-11-25T10:35:59.304Z,1005.11
2018-11-25T10:36:59.662Z,1005.05
2018-11-25T10:37:59.759Z,1005.07
2018-11-25T10:38:59.952Z,1005.09
2018-11-25T10:39:59.945Z,1005.06
2018-11-25T10:40:59.744Z,1005.06
2018-11-25T10:41:59.909Z,1005.06
2018-11-25T10:43:00.407Z,1005.06
2018-11-25T10:43:59.600Z,1005.05
2018-11-25T10:44:59.583Z,1005.08
2018-11-25T10:45:59.612Z,1005.07
2018-11-25T10:46:59.583Z,1005.06
2018-11-25T10:47:59.586Z,1005.11
2018-11-25T10:49:13.936Z,1005.02
2018-11-25T10:49:59.486Z,1005.07
2018-11-25T10:51:00.102Z,1005.03
2018-11-25T10:52:00.336Z,1005.01
2018-11-25T10:52:59.596Z,1005.04
2018-11-25T10:53:59.662Z,1005.02
2018-11-25T10:54:59.619Z,1004.99
2018-11-25T10:55:59.589Z,1004.99
2018-11-25T10:56:59.635Z,1005.01
2018-11-25T10:57:59.581Z,1005.01
2018-11-25T10:58:59.621Z,1004.97
2018-11-25T10:59:59.588Z,1004.98
2018-11-25T11:00:59.614Z,1005.03
2018-11-25T11:01:59.617Z,1005.04
2018-11-25T11:02:59.624Z,1004.97
2018-11-25T11:03:59.450Z,1004.87
2018-11-25T11:04:59.946Z,1004.93
2018-11-25T11:06:00.373Z,1004.91
2018-11-25T11:06:59.536Z,1004.87
2018-11-25T11:07:59.676Z,1004.92
2018-11-25T11:09:01.187Z,1004.89
2018-11-25T11:09:59.414Z,1004.92
2018-11-25T11:11:01.444Z,1004.91
2018-11-25T11:12:01.440Z,1004.96
2018-11-25T11:12:59.289Z,1004.99
2018-11-25T11:14:01.651Z,1004.95
2018-11-25T11:14:59.269Z,1004.90
2018-11-25T11:15:59.348Z,1004.96
2018-11-25T11:17:01.470Z,1004.96
2018-11-25T11:17:59.842Z,1004.96
2018-11-25T11:18:59.204Z,1004.98
2018-11-25T11:19:59.369Z,1004.95
2018-11-25T11:20:59.053Z,1004.98
2018-11-25T11:21:59.328Z,1004.98
2018-11-25T11:23:00.004Z,1004.96
2018-11-25T11:23:59.397Z,1004.96
2018-11-25T11:24:59.363Z,1004.99
2018-11-25T11:26:06.679Z,1004.93
2018-11-25T11:26:59.266Z,1004.90
2018-11-25T11:27:59.117Z,1004.93
2018-11-25T11:28:59.374Z,1004.92
2018-11-25T11:29:59.484Z,1004.91
2018-11-25T11:30:59.874Z,1005.01
2018-11-25T11:31:59.189Z,1004.95
2018-11-25T11:32:59.126Z,1004.99
2018-11-25T11:33:59.105Z,1005.00
2018-11-25T11:34:59.493Z,1004.96
2018-11-25T11:35:59.919Z,1005.01
2018-11-25T11:36:59.335Z,1004.94
2018-11-25T11:37:59.191Z,1005.00
2018-11-25T11:38:59.300Z,1004.97
2018-11-25T11:39:58.851Z,1004.96
2018-11-25T11:40:59.289Z,1005.02
2018-11-25T11:41:59.092Z,1005.02
2018-11-25T11:42:59.494Z,1005.04
2018-11-25T11:43:59.564Z,1005.01
2018-11-25T11:44:59.558Z,1005.00
2018-11-25T11:46:05.477Z,1005.03
2018-11-25T11:46:59.447Z,1005.04
2018-11-25T11:47:59.871Z,1005.06
2018-11-25T11:48:59.168Z,1005.04
2018-11-25T11:49:59.192Z,1005.08
2018-11-25T11:50:59.122Z,1005.06
2018-11-25T11:51:59.138Z,1005.04
2018-11-25T11:52:59.188Z,1005.07
2018-11-25T11:53:59.173Z,1005.02
2018-11-25T11:54:59.137Z,1005.06
2018-11-25T11:55:59.210Z,1005.04
2018-11-25T11:56:59.327Z,1005.07
2018-11-25T11:57:59.007Z,1005.04
2018-11-25T11:58:59.900Z,1005.01
2018-11-25T11:59:58.885Z,1005.01
2018-11-25T12:00:59.397Z,1005.07
2018-11-25T12:01:59.855Z,1005.03
2018-11-25T12:02:59.505Z,1005.07
2018-11-25T12:03:59.465Z,1005.06
2018-11-25T12:04:59.502Z,1005.04
2018-11-25T12:05:58.971Z,1005.01
2018-11-25T12:06:58.849Z,1005.00
2018-11-25T12:07:58.972Z,1005.02
2018-11-25T12:08:59.585Z,1004.99
2018-11-25T12:09:59.474Z,1004.92
2018-11-25T12:10:59.488Z,1004.97
2018-11-25T12:11:59.171Z,1005.01
2018-11-25T12:12:58.848Z,1005.01
2018-11-25T12:13:59.398Z,1004.99
2018-11-25T12:14:59.093Z,1005.01